Kezdőlap
METAR-TAF:

METAR-TAF

Repülőterek :

Hévíz-Balaton nemzetközi repülőtér

Hévíz, Magyarország

földrajzi szélesség: 46-41-11N, földrajzi hosszúság: 017-09-33E, magasság: 124 m

Jelenlegi meteorológiai megfigyelések

A jelentés 1 órával és 36 perccel ezelõtt készült, 19:45 UTC
Északkeleti szél 2 kt
Hőmérséklet 22°C
Páratartalom 78%
Légköri nyomás 1019 hPa
Látótávolság 10 km, vagy több
Kevés felhő 3000 lábon, Cumulonimbus.
Szakadozott felhőzet 20000 lábon

METAR: LHSM 271945Z 05002KT 9999 FEW030CB BKN200 22/18 Q1019

Idő: 23:21 (21:21 UTC)


TAF: hiányzik

Meteorológiai megfigyelések és előrejelzések több, mint 4000 repülőtéren (METAR és TAF jelentéseket).

A térképen piros és sárga pontok jelzik az elérhető meteorológiai állomásokat.

Mozgassa az egeret a pont fölött, hogy megjelenjen az állomás neve.

Azután kattintson az időjárási megfigyelések és előrejelzések megtekintéséhez.

A térkép megváltoztatása: kattintson a fekete keresztel jelölt zöld gombra ráközelítéshez, a vonallal jelölt zöld gombra távolításhoz, vagy a zöld nyilakra a szomszédos térképek eléréséhez.


METAR-TAF: